sensor_id;sensor_type;location;lat;lon;timestamp;pressure;altitude;pressure_sealevel;temperature;humidity
46722;BME280;32455;43.430;23.136;2023-02-15T00:01:21;99521.72;;;-1.52;100.00
46722;BME280;32455;43.430;23.136;2023-02-15T00:04:06;99517.13;;;-1.61;100.00
46722;BME280;32455;43.430;23.136;2023-02-15T00:06:52;99514.66;;;-1.75;100.00
46722;BME280;32455;43.430;23.136;2023-02-15T00:09:37;99515.50;;;-1.74;100.00
46722;BME280;32455;43.430;23.136;2023-02-15T00:12:22;99520.97;;;-1.78;100.00
46722;BME280;32455;43.430;23.136;2023-02-15T00:15:07;99521.53;;;-1.85;100.00
46722;BME280;32455;43.430;23.136;2023-02-15T00:17:52;99527.19;;;-2.03;100.00
46722;BME280;32455;43.430;23.136;2023-02-15T00:20:37;99530.69;;;-1.78;100.00
46722;BME280;32455;43.430;23.136;2023-02-15T00:23:22;99527.03;;;-1.88;100.00
46722;BME280;32455;43.430;23.136;2023-02-15T00:26:08;99530.94;;;-1.94;100.00
46722;BME280;32455;43.430;23.136;2023-02-15T00:28:54;99532.75;;;-1.94;100.00
46722;BME280;32455;43.430;23.136;2023-02-15T00:31:38;99532.19;;;-1.87;100.00
46722;BME280;32455;43.430;23.136;2023-02-15T00:34:24;99543.78;;;-1.89;100.00
46722;BME280;32455;43.430;23.136;2023-02-15T00:37:10;99537.38;;;-1.98;100.00
46722;BME280;32455;43.430;23.136;2023-02-15T00:39:55;99540.34;;;-2.03;100.00
46722;BME280;32455;43.430;23.136;2023-02-15T00:42:40;99544.09;;;-1.94;100.00
46722;BME280;32455;43.430;23.136;2023-02-15T00:45:25;99543.41;;;-1.96;100.00
46722;BME280;32455;43.430;23.136;2023-02-15T00:48:10;99541.59;;;-1.95;100.00
46722;BME280;32455;43.430;23.136;2023-02-15T00:50:56;99545.78;;;-1.93;100.00
46722;BME280;32455;43.430;23.136;2023-02-15T00:53:42;99548.41;;;-1.93;100.00
46722;BME280;32455;43.430;23.136;2023-02-15T00:56:27;99545.69;;;-1.91;100.00
46722;BME280;32455;43.430;23.136;2023-02-15T00:59:12;99546.03;;;-1.96;100.00
46722;BME280;32455;43.430;23.136;2023-02-15T01:01:57;99537.97;;;-1.82;100.00
46722;BME280;32455;43.430;23.136;2023-02-15T01:04:43;99528.59;;;-1.86;100.00
46722;BME280;32455;43.430;23.136;2023-02-15T01:07:28;99533.63;;;-1.70;100.00
46722;BME280;32455;43.430;23.136;2023-02-15T01:10:13;99528.06;;;-1.78;100.00
46722;BME280;32455;43.430;23.136;2023-02-15T01:12:58;99523.53;;;-1.89;100.00
46722;BME280;32455;43.430;23.136;2023-02-15T01:15:43;99524.06;;;-1.84;100.00
46722;BME280;32455;43.430;23.136;2023-02-15T01:18:29;99519.53;;;-1.58;100.00
46722;BME280;32455;43.430;23.136;2023-02-15T01:21:16;99503.94;;;-0.90;100.00
46722;BME280;32455;43.430;23.136;2023-02-15T01:24:02;99506.00;;;-0.60;100.00
46722;BME280;32455;43.430;23.136;2023-02-15T01:26:47;99505.34;;;0.26;100.00
46722;BME280;32455;43.430;23.136;2023-02-15T01:29:32;99510.50;;;0.16;100.00
46722;BME280;32455;43.430;23.136;2023-02-15T01:32:17;99504.16;;;0.51;100.00
46722;BME280;32455;43.430;23.136;2023-02-15T01:35:03;99502.59;;;0.81;100.00
46722;BME280;32455;43.430;23.136;2023-02-15T01:37:48;99507.56;;;0.74;100.00
46722;BME280;32455;43.430;23.136;2023-02-15T01:40:33;99512.47;;;0.46;100.00
46722;BME280;32455;43.430;23.136;2023-02-15T01:43:18;99507.47;;;0.32;100.00
46722;BME280;32455;43.430;23.136;2023-02-15T01:46:03;99512.63;;;0.34;100.00
46722;BME280;32455;43.430;23.136;2023-02-15T01:48:50;99508.22;;;0.23;100.00
46722;BME280;32455;43.430;23.136;2023-02-15T01:51:37;99507.44;;;0.75;100.00
46722;BME280;32455;43.430;23.136;2023-02-15T01:54:25;99514.00;;;0.60;100.00
46722;BME280;32455;43.430;23.136;2023-02-15T01:57:13;99515.47;;;0.53;100.00
46722;BME280;32455;43.430;23.136;2023-02-15T02:00:03;99520.03;;;0.51;100.00
46722;BME280;32455;43.430;23.136;2023-02-15T02:02:50;99523.06;;;0.46;100.00
46722;BME280;32455;43.430;23.136;2023-02-15T02:05:37;99518.94;;;0.54;100.00
46722;BME280;32455;43.430;23.136;2023-02-15T02:08:23;99522.06;;;0.59;100.00
46722;BME280;32455;43.430;23.136;2023-02-15T02:11:12;99514.66;;;0.41;100.00
46722;BME280;32455;43.430;23.136;2023-02-15T02:13:57;99520.63;;;0.22;100.00
46722;BME280;32455;43.430;23.136;2023-02-15T02:16:52;99525.63;;;0.25;100.00
46722;BME280;32455;43.430;23.136;2023-02-15T02:34:32;99518.06;;;0.21;100.00
46722;BME280;32455;43.430;23.136;2023-02-15T02:45:43;99517.22;;;0.64;100.00
46722;BME280;32455;43.430;23.136;2023-02-15T02:48:31;99510.09;;;0.96;100.00
46722;BME280;32455;43.430;23.136;2023-02-15T02:51:17;99513.06;;;0.82;100.00
46722;BME280;32455;43.430;23.136;2023-02-15T02:54:06;99520.44;;;0.67;100.00
46722;BME280;32455;43.430;23.136;2023-02-15T02:56:52;99523.47;;;0.63;100.00
46722;BME280;32455;43.430;23.136;2023-02-15T02:59:39;99518.22;;;0.84;100.00
46722;BME280;32455;43.430;23.136;2023-02-15T03:02:28;99515.69;;;0.61;100.00
46722;BME280;32455;43.430;23.136;2023-02-15T03:05:18;99519.47;;;0.68;100.00
46722;BME280;32455;43.430;23.136;2023-02-15T03:08:04;99521.72;;;0.84;100.00
46722;BME280;32455;43.430;23.136;2023-02-15T03:10:55;99529.72;;;0.73;100.00
46722;BME280;32455;43.430;23.136;2023-02-15T03:13:41;99531.03;;;0.67;100.00
46722;BME280;32455;43.430;23.136;2023-02-15T03:16:28;99530.72;;;0.61;100.00
46722;BME280;32455;43.430;23.136;2023-02-15T03:19:17;99538.69;;;0.49;100.00
46722;BME280;32455;43.430;23.136;2023-02-15T03:22:21;99538.75;;;0.59;100.00
46722;BME280;32455;43.430;23.136;2023-02-15T03:25:14;99542.22;;;0.71;100.00
46722;BME280;32455;43.430;23.136;2023-02-15T03:28:01;99541.00;;;0.75;100.00
46722;BME280;32455;43.430;23.136;2023-02-15T03:30:48;99537.09;;;0.58;100.00
46722;BME280;32455;43.430;23.136;2023-02-15T03:33:37;99543.50;;;0.44;100.00
46722;BME280;32455;43.430;23.136;2023-02-15T03:39:20;99543.72;;;1.06;100.00
46722;BME280;32455;43.430;23.136;2023-02-15T03:45:02;99548.47;;;0.70;100.00
46722;BME280;32455;43.430;23.136;2023-02-15T03:47:48;99548.66;;;0.46;100.00
46722;BME280;32455;43.430;23.136;2023-02-15T03:50:35;99556.72;;;0.44;100.00
46722;BME280;32455;43.430;23.136;2023-02-15T03:53:39;99562.63;;;0.25;100.00
46722;BME280;32455;43.430;23.136;2023-02-15T03:56:26;99564.00;;;0.09;100.00
46722;BME280;32455;43.430;23.136;2023-02-15T03:59:11;99561.25;;;-0.12;100.00
46722;BME280;32455;43.430;23.136;2023-02-15T04:02:20;99557.66;;;-0.34;100.00
46722;BME280;32455;43.430;23.136;2023-02-15T04:05:06;99557.75;;;-0.35;100.00
46722;BME280;32455;43.430;23.136;2023-02-15T04:07:52;99558.84;;;-0.27;100.00
46722;BME280;32455;43.430;23.136;2023-02-15T04:10:37;99559.78;;;0.06;100.00
46722;BME280;32455;43.430;23.136;2023-02-15T04:13:37;99555.22;;;0.08;100.00
46722;BME280;32455;43.430;23.136;2023-02-15T04:16:23;99557.16;;;0.17;100.00
46722;BME280;32455;43.430;23.136;2023-02-15T04:19:09;99561.25;;;0.10;100.00
46722;BME280;32455;43.430;23.136;2023-02-15T04:22:12;99563.13;;;0.19;100.00
46722;BME280;32455;43.430;23.136;2023-02-15T04:25:16;99568.66;;;0.39;100.00
46722;BME280;32455;43.430;23.136;2023-02-15T04:28:01;99565.69;;;0.64;100.00
46722;BME280;32455;43.430;23.136;2023-02-15T04:30:47;99570.75;;;0.56;100.00
46722;BME280;32455;43.430;23.136;2023-02-15T04:33:32;99571.25;;;0.50;100.00
46722;BME280;32455;43.430;23.136;2023-02-15T04:36:17;99568.81;;;0.69;100.00
46722;BME280;32455;43.430;23.136;2023-02-15T04:39:03;99571.44;;;0.69;100.00
46722;BME280;32455;43.430;23.136;2023-02-15T04:41:48;99569.81;;;0.46;100.00
46722;BME280;32455;43.430;23.136;2023-02-15T04:44:33;99578.41;;;0.27;100.00
46722;BME280;32455;43.430;23.136;2023-02-15T04:47:18;99576.25;;;0.10;100.00
46722;BME280;32455;43.430;23.136;2023-02-15T04:50:03;99572.19;;;0.06;100.00
46722;BME280;32455;43.430;23.136;2023-02-15T04:52:48;99565.34;;;-0.19;100.00
46722;BME280;32455;43.430;23.136;2023-02-15T04:55:34;99568.69;;;-0.40;100.00
46722;BME280;32455;43.430;23.136;2023-02-15T04:58:18;99572.63;;;-0.45;100.00
46722;BME280;32455;43.430;23.136;2023-02-15T05:01:04;99565.06;;;-0.39;100.00
46722;BME280;32455;43.430;23.136;2023-02-15T05:03:49;99568.69;;;-0.17;100.00
46722;BME280;32455;43.430;23.136;2023-02-15T05:06:34;99566.53;;;-0.23;100.00
46722;BME280;32455;43.430;23.136;2023-02-15T05:09:20;99578.72;;;0.45;100.00
46722;BME280;32455;43.430;23.136;2023-02-15T05:12:06;99580.00;;;0.62;100.00
46722;BME280;32455;43.430;23.136;2023-02-15T05:14:51;99585.19;;;0.95;100.00
46722;BME280;32455;43.430;23.136;2023-02-15T05:17:36;99577.34;;;0.73;100.00
46722;BME280;32455;43.430;23.136;2023-02-15T05:20:21;99576.91;;;1.10;100.00
46722;BME280;32455;43.430;23.136;2023-02-15T05:23:06;99576.75;;;1.22;100.00
46722;BME280;32455;43.430;23.136;2023-02-15T05:25:52;99581.91;;;1.45;100.00
46722;BME280;32455;43.430;23.136;2023-02-15T05:28:56;99580.38;;;1.21;100.00
46722;BME280;32455;43.430;23.136;2023-02-15T05:31:41;99588.13;;;1.02;100.00
46722;BME280;32455;43.430;23.136;2023-02-15T05:34:26;99584.22;;;1.17;100.00
46722;BME280;32455;43.430;23.136;2023-02-15T05:37:11;99591.16;;;1.30;100.00
46722;BME280;32455;43.430;23.136;2023-02-15T05:39:56;99591.72;;;1.12;100.00
46722;BME280;32455;43.430;23.136;2023-02-15T05:42:40;99594.84;;;1.06;100.00
46722;BME280;32455;43.430;23.136;2023-02-15T05:45:25;99600.25;;;1.16;100.00
46722;BME280;32455;43.430;23.136;2023-02-15T05:48:10;99589.91;;;1.13;100.00
46722;BME280;32455;43.430;23.136;2023-02-15T05:50:59;99587.97;;;1.15;100.00
46722;BME280;32455;43.430;23.136;2023-02-15T05:53:44;99585.91;;;1.18;100.00
46722;BME280;32455;43.430;23.136;2023-02-15T05:56:29;99598.13;;;1.31;100.00
46722;BME280;32455;43.430;23.136;2023-02-15T05:59:14;99594.88;;;1.27;100.00
46722;BME280;32455;43.430;23.136;2023-02-15T06:01:59;99597.72;;;1.35;100.00
46722;BME280;32455;43.430;23.136;2023-02-15T06:04:44;99603.47;;;1.40;100.00
46722;BME280;32455;43.430;23.136;2023-02-15T06:07:30;99603.81;;;1.47;100.00
46722;BME280;32455;43.430;23.136;2023-02-15T06:10:15;99601.41;;;1.44;100.00
46722;BME280;32455;43.430;23.136;2023-02-15T06:13:00;99604.06;;;1.44;100.00
46722;BME280;32455;43.430;23.136;2023-02-15T06:15:45;99611.94;;;1.34;100.00
46722;BME280;32455;43.430;23.136;2023-02-15T06:18:31;99619.56;;;1.28;100.00
46722;BME280;32455;43.430;23.136;2023-02-15T06:21:15;99616.06;;;1.27;100.00
46722;BME280;32455;43.430;23.136;2023-02-15T06:24:01;99611.22;;;1.32;100.00
46722;BME280;32455;43.430;23.136;2023-02-15T06:26:46;99614.47;;;1.36;100.00
46722;BME280;32455;43.430;23.136;2023-02-15T06:29:31;99618.97;;;1.45;100.00
46722;BME280;32455;43.430;23.136;2023-02-15T06:32:16;99625.06;;;1.57;100.00
46722;BME280;32455;43.430;23.136;2023-02-15T06:35:02;99616.59;;;1.63;100.00
46722;BME280;32455;43.430;23.136;2023-02-15T06:37:47;99615.69;;;1.73;100.00
46722;BME280;32455;43.430;23.136;2023-02-15T06:40:33;99621.09;;;1.93;100.00
46722;BME280;32455;43.430;23.136;2023-02-15T06:43:18;99622.84;;;2.13;100.00
46722;BME280;32455;43.430;23.136;2023-02-15T06:46:03;99619.84;;;2.28;100.00
46722;BME280;32455;43.430;23.136;2023-02-15T06:48:48;99619.63;;;2.40;99.77
46722;BME280;32455;43.430;23.136;2023-02-15T06:51:33;99615.81;;;2.93;96.62
46722;BME280;32455;43.430;23.136;2023-02-15T06:54:18;99618.44;;;3.41;92.63
46722;BME280;32455;43.430;23.136;2023-02-15T06:57:04;99623.22;;;3.38;93.40
46722;BME280;32455;43.430;23.136;2023-02-15T06:59:49;99616.06;;;3.58;91.20
46722;BME280;32455;43.430;23.136;2023-02-15T07:02:34;99623.06;;;3.68;91.34
46722;BME280;32455;43.430;23.136;2023-02-15T07:05:19;99620.25;;;3.60;91.63
46722;BME280;32455;43.430;23.136;2023-02-15T07:08:05;99623.56;;;3.72;93.10
46722;BME280;32455;43.430;23.136;2023-02-15T07:10:50;99622.72;;;3.81;91.34
46722;BME280;32455;43.430;23.136;2023-02-15T07:13:35;99625.50;;;3.99;90.07
46722;BME280;32455;43.430;23.136;2023-02-15T07:16:21;99627.41;;;4.07;90.82
46722;BME280;32455;43.430;23.136;2023-02-15T07:19:05;99623.91;;;4.06;88.05
46722;BME280;32455;43.430;23.136;2023-02-15T07:21:51;99625.91;;;4.32;87.62
46722;BME280;32455;43.430;23.136;2023-02-15T07:24:36;99627.50;;;4.24;87.94
46722;BME280;32455;43.430;23.136;2023-02-15T07:27:21;99622.22;;;4.42;87.48
46722;BME280;32455;43.430;23.136;2023-02-15T07:30:08;99625.66;;;4.52;86.96
46722;BME280;32455;43.430;23.136;2023-02-15T07:32:57;99627.31;;;4.63;87.64
46722;BME280;32455;43.430;23.136;2023-02-15T07:36:01;99619.72;;;4.68;86.40
46722;BME280;32455;43.430;23.136;2023-02-15T07:38:47;99623.88;;;4.71;86.79
46722;BME280;32455;43.430;23.136;2023-02-15T07:41:32;99633.69;;;4.70;84.55
46722;BME280;32455;43.430;23.136;2023-02-15T07:44:17;99623.47;;;4.93;85.24
46722;BME280;32455;43.430;23.136;2023-02-15T07:47:02;99617.06;;;4.86;84.54
46722;BME280;32455;43.430;23.136;2023-02-15T07:49:47;99612.28;;;4.90;85.69
46722;BME280;32455;43.430;23.136;2023-02-15T07:52:34;99620.53;;;5.14;85.05
46722;BME280;32455;43.430;23.136;2023-02-15T07:55:18;99625.16;;;5.12;82.68
46722;BME280;32455;43.430;23.136;2023-02-15T07:58:03;99627.88;;;5.20;82.69
46722;BME280;32455;43.430;23.136;2023-02-15T08:00:48;99615.66;;;5.27;84.28
46722;BME280;32455;43.430;23.136;2023-02-15T08:03:42;99622.09;;;5.25;82.27
46722;BME280;32455;43.430;23.136;2023-02-15T08:06:28;99617.78;;;5.24;83.39
46722;BME280;32455;43.430;23.136;2023-02-15T08:09:14;99617.00;;;5.49;81.62
46722;BME280;32455;43.430;23.136;2023-02-15T08:11:59;99617.69;;;5.34;82.44
46722;BME280;32455;43.430;23.136;2023-02-15T08:14:44;99617.34;;;5.55;81.87
46722;BME280;32455;43.430;23.136;2023-02-15T08:17:29;99619.84;;;5.74;81.22
46722;BME280;32455;43.430;23.136;2023-02-15T08:20:14;99621.03;;;5.80;81.00
46722;BME280;32455;43.430;23.136;2023-02-15T08:22:59;99614.94;;;5.87;79.87
46722;BME280;32455;43.430;23.136;2023-02-15T08:25:44;99621.63;;;5.91;79.42
46722;BME280;32455;43.430;23.136;2023-02-15T08:28:30;99627.50;;;5.77;79.11
46722;BME280;32455;43.430;23.136;2023-02-15T08:31:16;99626.06;;;5.83;77.84
46722;BME280;32455;43.430;23.136;2023-02-15T08:34:01;99628.09;;;5.89;80.38
46722;BME280;32455;43.430;23.136;2023-02-15T08:36:46;99625.56;;;6.05;80.14
46722;BME280;32455;43.430;23.136;2023-02-15T08:39:31;99627.34;;;5.96;79.18
46722;BME280;32455;43.430;23.136;2023-02-15T08:42:16;99620.50;;;5.94;79.18
46722;BME280;32455;43.430;23.136;2023-02-15T08:45:01;99620.03;;;5.81;79.28
46722;BME280;32455;43.430;23.136;2023-02-15T08:47:47;99614.19;;;5.77;77.45
46722;BME280;32455;43.430;23.136;2023-02-15T08:50:31;99622.03;;;5.96;79.07
46722;BME280;32455;43.430;23.136;2023-02-15T08:53:16;99629.25;;;6.12;78.51
46722;BME280;32455;43.430;23.136;2023-02-15T08:56:04;99628.22;;;6.31;77.87
46722;BME280;32455;43.430;23.136;2023-02-15T08:58:49;99625.66;;;6.21;76.29
46722;BME280;32455;43.430;23.136;2023-02-15T09:01:35;99634.94;;;6.43;75.17
46722;BME280;32455;43.430;23.136;2023-02-15T09:04:20;99628.25;;;6.39;76.08
46722;BME280;32455;43.430;23.136;2023-02-15T09:07:05;99636.16;;;6.57;70.86
46722;BME280;32455;43.430;23.136;2023-02-15T09:09:49;99634.50;;;6.56;71.49
46722;BME280;32455;43.430;23.136;2023-02-15T09:12:34;99641.00;;;6.53;69.99
46722;BME280;32455;43.430;23.136;2023-02-15T09:15:19;99639.81;;;6.48;69.66
46722;BME280;32455;43.430;23.136;2023-02-15T09:18:04;99630.50;;;6.60;69.87
46722;BME280;32455;43.430;23.136;2023-02-15T09:20:51;99627.19;;;6.66;69.62
46722;BME280;32455;43.430;23.136;2023-02-15T09:23:36;99621.97;;;6.57;70.11
46722;BME280;32455;43.430;23.136;2023-02-15T09:26:22;99623.78;;;6.48;68.72
46722;BME280;32455;43.430;23.136;2023-02-15T09:29:09;99631.38;;;6.69;69.33
46722;BME280;32455;43.430;23.136;2023-02-15T09:31:54;99629.31;;;6.55;68.02
46722;BME280;32455;43.430;23.136;2023-02-15T09:34:39;99623.16;;;6.62;67.20
46722;BME280;32455;43.430;23.136;2023-02-15T09:37:24;99626.50;;;6.56;68.39
46722;BME280;32455;43.430;23.136;2023-02-15T09:40:11;99625.88;;;6.78;71.18
46722;BME280;32455;43.430;23.136;2023-02-15T09:48:40;99615.13;;;7.21;68.29
46722;BME280;32455;43.430;23.136;2023-02-15T09:51:36;99610.06;;;7.01;66.70
46722;BME280;32455;43.430;23.136;2023-02-15T09:54:32;99613.56;;;7.02;68.97
46722;BME280;32455;43.430;23.136;2023-02-15T10:03:22;99595.56;;;7.12;67.98
46722;BME280;32455;43.430;23.136;2023-02-15T10:09:52;99585.22;;;7.34;67.33
46722;BME280;32455;43.430;23.136;2023-02-15T10:12:16;99571.53;;;7.37;69.57
46722;BME280;32455;43.430;23.136;2023-02-15T10:24:19;99570.16;;;7.41;67.90
46722;BME280;32455;43.430;23.136;2023-02-15T10:27:11;99567.47;;;7.57;68.10
46722;BME280;32455;43.430;23.136;2023-02-15T10:30:08;99567.66;;;7.64;66.97
46722;BME280;32455;43.430;23.136;2023-02-15T10:33:04;99569.00;;;7.51;69.33
46722;BME280;32455;43.430;23.136;2023-02-15T10:36:05;99553.13;;;7.58;69.16
46722;BME280;32455;43.430;23.136;2023-02-15T10:38:57;99560.97;;;7.51;66.45
46722;BME280;32455;43.430;23.136;2023-02-15T10:45:06;99547.94;;;7.32;67.56
46722;BME280;32455;43.430;23.136;2023-02-15T10:47:48;99534.31;;;7.83;64.85
46722;BME280;32455;43.430;23.136;2023-02-15T10:50:57;99540.69;;;7.73;65.54
46722;BME280;32455;43.430;23.136;2023-02-15T10:53:59;99535.22;;;7.59;65.94
46722;BME280;32455;43.430;23.136;2023-02-15T10:57:10;99523.19;;;7.55;65.09
46722;BME280;32455;43.430;23.136;2023-02-15T11:00:05;99521.34;;;7.63;66.01
46722;BME280;32455;43.430;23.136;2023-02-15T11:08:39;99528.44;;;7.95;65.88
46722;BME280;32455;43.430;23.136;2023-02-15T11:11:32;99523.72;;;8.06;65.47
46722;BME280;32455;43.430;23.136;2023-02-15T11:14:39;99518.38;;;8.06;64.51
46722;BME280;32455;43.430;23.136;2023-02-15T11:17:33;99511.44;;;7.80;64.21
46722;BME280;32455;43.430;23.136;2023-02-15T11:20:23;99512.38;;;7.95;64.42
46722;BME280;32455;43.430;23.136;2023-02-15T11:23:13;99515.31;;;8.09;65.29
46722;BME280;32455;43.430;23.136;2023-02-15T11:26:04;99506.63;;;8.15;63.83
46722;BME280;32455;43.430;23.136;2023-02-15T11:28:54;99498.94;;;8.12;63.03
46722;BME280;32455;43.430;23.136;2023-02-15T11:31:44;99497.38;;;8.17;64.59
46722;BME280;32455;43.430;23.136;2023-02-15T11:37:20;99480.97;;;8.20;64.19
46722;BME280;32455;43.430;23.136;2023-02-15T11:40:14;99484.91;;;8.10;64.31
46722;BME280;32455;43.430;23.136;2023-02-15T11:43:03;99474.38;;;8.39;64.15
46722;BME280;32455;43.430;23.136;2023-02-15T11:45:49;99467.66;;;8.43;64.08
46722;BME280;32455;43.430;23.136;2023-02-15T11:48:35;99468.09;;;8.55;63.71
46722;BME280;32455;43.430;23.136;2023-02-15T11:51:21;99467.25;;;8.55;63.11
46722;BME280;32455;43.430;23.136;2023-02-15T11:54:07;99465.00;;;8.35;63.01
46722;BME280;32455;43.430;23.136;2023-02-15T11:56:55;99460.63;;;8.42;62.98
46722;BME280;32455;43.430;23.136;2023-02-15T11:59:42;99453.09;;;8.46;64.00
46722;BME280;32455;43.430;23.136;2023-02-15T12:02:30;99459.81;;;8.65;63.83
46722;BME280;32455;43.430;23.136;2023-02-15T12:05:17;99458.09;;;8.49;62.48
46722;BME280;32455;43.430;23.136;2023-02-15T12:08:16;99447.72;;;8.69;61.57
46722;BME280;32455;43.430;23.136;2023-02-15T12:11:06;99447.84;;;8.75;61.44
46722;BME280;32455;43.430;23.136;2023-02-15T12:13:59;99446.25;;;8.66;61.66
46722;BME280;32455;43.430;23.136;2023-02-15T12:16:46;99440.22;;;8.64;62.97
46722;BME280;32455;43.430;23.136;2023-02-15T12:19:34;99438.03;;;8.68;62.84
46722;BME280;32455;43.430;23.136;2023-02-15T12:25:52;99438.75;;;8.62;61.85
46722;BME280;32455;43.430;23.136;2023-02-15T12:28:36;99429.22;;;8.59;62.37
46722;BME280;32455;43.430;23.136;2023-02-15T12:31:26;99433.78;;;8.73;61.62
46722;BME280;32455;43.430;23.136;2023-02-15T12:34:17;99428.06;;;8.76;62.32
46722;BME280;32455;43.430;23.136;2023-02-15T12:37:14;99423.94;;;8.89;62.36
46722;BME280;32455;43.430;23.136;2023-02-15T12:40:02;99425.31;;;8.85;61.66
46722;BME280;32455;43.430;23.136;2023-02-15T12:42:47;99426.16;;;8.85;62.27
46722;BME280;32455;43.430;23.136;2023-02-15T12:45:34;99423.94;;;8.89;61.35
46722;BME280;32455;43.430;23.136;2023-02-15T12:48:19;99413.56;;;8.71;62.05
46722;BME280;32455;43.430;23.136;2023-02-15T12:51:12;99420.50;;;8.80;62.64
46722;BME280;32455;43.430;23.136;2023-02-15T12:53:59;99427.03;;;8.77;61.02
46722;BME280;32455;43.430;23.136;2023-02-15T12:56:48;99411.91;;;8.70;61.58
46722;BME280;32455;43.430;23.136;2023-02-15T12:59:34;99418.78;;;8.64;62.30
46722;BME280;32455;43.430;23.136;2023-02-15T13:02:20;99412.59;;;8.87;61.98
46722;BME280;32455;43.430;23.136;2023-02-15T13:05:21;99425.84;;;8.65;60.16
46722;BME280;32455;43.430;23.136;2023-02-15T13:08:09;99423.78;;;8.67;59.96
46722;BME280;32455;43.430;23.136;2023-02-15T13:11:06;99421.94;;;8.91;61.19
46722;BME280;32455;43.430;23.136;2023-02-15T13:13:58;99424.91;;;8.96;60.36
46722;BME280;32455;43.430;23.136;2023-02-15T13:16:45;99423.88;;;8.97;60.43
46722;BME280;32455;43.430;23.136;2023-02-15T13:19:36;99419.69;;;8.94;60.52
46722;BME280;32455;43.430;23.136;2023-02-15T13:22:27;99423.88;;;8.97;60.91
46722;BME280;32455;43.430;23.136;2023-02-15T13:25:19;99428.75;;;8.78;60.09
46722;BME280;32455;43.430;23.136;2023-02-15T13:28:05;99431.41;;;8.78;59.92
46722;BME280;32455;43.430;23.136;2023-02-15T13:30:51;99434.25;;;9.00;59.32
46722;BME280;32455;43.430;23.136;2023-02-15T13:33:37;99434.69;;;9.03;59.21
46722;BME280;32455;43.430;23.136;2023-02-15T13:36:40;99433.88;;;9.03;59.31
46722;BME280;32455;43.430;23.136;2023-02-15T13:42:17;99440.75;;;8.60;59.72
46722;BME280;32455;43.430;23.136;2023-02-15T13:56:58;99433.66;;;8.90;60.04
46722;BME280;32455;43.430;23.136;2023-02-15T13:59:57;99438.03;;;8.91;59.22
46722;BME280;32455;43.430;23.136;2023-02-15T14:11:37;99436.78;;;8.78;59.50
46722;BME280;32455;43.430;23.136;2023-02-15T14:15:14;99444.63;;;8.80;60.44
46722;BME280;32455;43.430;23.136;2023-02-15T14:29:16;99438.97;;;8.75;59.35
46722;BME280;32455;43.430;23.136;2023-02-15T14:32:08;99443.44;;;8.83;58.93
46722;BME280;32455;43.430;23.136;2023-02-15T14:34:57;99434.75;;;8.58;59.71
46722;BME280;32455;43.430;23.136;2023-02-15T14:40:38;99439.22;;;8.42;60.70
46722;BME280;32455;43.430;23.136;2023-02-15T14:43:47;99441.59;;;8.29;60.86
46722;BME280;32455;43.430;23.136;2023-02-15T14:49:24;99445.94;;;8.30;60.33
46722;BME280;32455;43.430;23.136;2023-02-15T14:52:11;99443.44;;;8.37;60.00
46722;BME280;32455;43.430;23.136;2023-02-15T14:54:57;99440.56;;;8.07;60.30
46722;BME280;32455;43.430;23.136;2023-02-15T14:57:51;99440.03;;;8.12;60.35
46722;BME280;32455;43.430;23.136;2023-02-15T15:00:41;99447.31;;;7.95;61.68
46722;BME280;32455;43.430;23.136;2023-02-15T15:03:26;99438.44;;;7.94;61.42
46722;BME280;32455;43.430;23.136;2023-02-15T15:06:23;99438.66;;;7.85;62.30
46722;BME280;32455;43.430;23.136;2023-02-15T15:12:15;99444.72;;;7.70;63.54
46722;BME280;32455;43.430;23.136;2023-02-15T15:15:04;99435.44;;;7.50;64.80
46722;BME280;32455;43.430;23.136;2023-02-15T15:23:33;99433.53;;;6.95;68.36
46722;BME280;32455;43.430;23.136;2023-02-15T15:26:24;99431.03;;;6.61;73.76
46722;BME280;32455;43.430;23.136;2023-02-15T15:29:10;99436.88;;;5.89;76.92
46722;BME280;32455;43.430;23.136;2023-02-15T15:31:54;99432.75;;;5.61;78.27
46722;BME280;32455;43.430;23.136;2023-02-15T15:34:58;99441.66;;;5.43;79.85
46722;BME280;32455;43.430;23.136;2023-02-15T15:37:58;99433.72;;;5.25;80.44
46722;BME280;32455;43.430;23.136;2023-02-15T15:49:34;99431.53;;;4.51;86.43
46722;BME280;32455;43.430;23.136;2023-02-15T15:52:21;99435.47;;;4.47;85.26
46722;BME280;32455;43.430;23.136;2023-02-15T15:55:14;99436.25;;;4.39;85.44
46722;BME280;32455;43.430;23.136;2023-02-15T15:58:04;99440.44;;;4.24;86.60
46722;BME280;32455;43.430;23.136;2023-02-15T16:00:58;99437.03;;;3.86;89.71
46722;BME280;32455;43.430;23.136;2023-02-15T16:03:51;99445.72;;;3.79;90.23
46722;BME280;32455;43.430;23.136;2023-02-15T16:06:37;99437.84;;;3.59;91.09
46722;BME280;32455;43.430;23.136;2023-02-15T16:09:24;99441.31;;;3.32;93.54
46722;BME280;32455;43.430;23.136;2023-02-15T16:12:15;99436.78;;;3.05;95.13
46722;BME280;32455;43.430;23.136;2023-02-15T16:15:13;99438.22;;;2.90;97.53
46722;BME280;32455;43.430;23.136;2023-02-15T16:18:00;99440.31;;;2.76;98.09
46722;BME280;32455;43.430;23.136;2023-02-15T16:29:18;99437.97;;;2.54;97.98
46722;BME280;32455;43.430;23.136;2023-02-15T16:32:20;99440.75;;;2.33;99.37
46722;BME280;32455;43.430;23.136;2023-02-15T16:35:11;99438.66;;;2.46;98.00
46722;BME280;32455;43.430;23.136;2023-02-15T16:37:59;99443.97;;;2.46;96.69
46722;BME280;32455;43.430;23.136;2023-02-15T16:40:51;99447.72;;;2.24;98.76
46722;BME280;32455;43.430;23.136;2023-02-15T16:43:36;99442.53;;;2.13;100.00
46722;BME280;32455;43.430;23.136;2023-02-15T16:49:12;99435.16;;;1.97;100.00
46722;BME280;32455;43.430;23.136;2023-02-15T16:52:03;99440.16;;;2.00;100.00
46722;BME280;32455;43.430;23.136;2023-02-15T16:54:54;99448.09;;;2.00;100.00
46722;BME280;32455;43.430;23.136;2023-02-15T16:57:41;99437.50;;;1.91;100.00
46722;BME280;32455;43.430;23.136;2023-02-15T17:00:28;99445.00;;;1.76;100.00
46722;BME280;32455;43.430;23.136;2023-02-15T17:06:03;99439.25;;;1.71;100.00